< < Back
Terminal Aerodrome Forecast


Current Version              Previous Versions:   1  2  3  4  5  6  7  8  9  

Terminal Aerodrome Forecast

574
FTAK31 PAJN 291727
TAFAHN
TAF
PAHN 291727Z 2918/3018 VRB04KT P6SM FEW050 SCT090
     FM292200 13008KT P6SM VCSH BKN050 OVC070
     FM300400 10009KT P6SM VCSH SCT025 OVC050
     FM300700 09009KT P6SM VCSH SCT015 BKN025 OVC040
     FM301400 10004KT P6SM -RA SCT015 OVC025
      AMD LTD TO CLD VIS AND WIND=



Latest METAR

346
SAUS70 KWBC 300456
MTRAHN
METAR KAHN 300451Z AUTO 00000KT 10SM CLR 23/21 A2999 RMK AO2 LTG DSNT NW
SLP145 T02280211 403440200


USA.gov is the U.S. government's official web portal to all federal, state and local government web resources and services.